Time,TemperatureF,DewpointF,PressureIn,WindDirection,WindDirectionDegrees,WindSpeedMPH,WindSpeedGustMPH,Humidity,HourlyPrecipIn,Conditions,Clouds,dailyrainin,SoftwareType,DateUTC
2013-07-02 05:12:00,60.1,35.6,30.03,North,-999,0.0,0.0,40,0.00,,,-99.99,FreeWX 2.04,2013-07-02 09:12:00,
2013-07-02 08:24:00,62.6,36.0,30.06,North,-999,0.0,0.0,37,0.00,,,-99.99,FreeWX 2.04,2013-07-02 12:24:00,
2013-07-02 08:29:00,63.0,35.6,30.06,ESE,117,1.0,6.9,36,0.00,,,-99.99,FreeWX 2.04,2013-07-02 12:29:00,
2013-07-02 08:34:00,63.0,34.9,30.06,ESE,111,1.0,5.4,35,0.00,,,-99.99,FreeWX 2.04,2013-07-02 12:34:00,
2013-07-02 08:39:00,63.1,35.1,30.03,East,101,2.0,5.8,35,0.00,,,-99.99,FreeWX 2.04,2013-07-02 12:39:00,
2013-07-02 08:44:00,63.3,35.2,30.03,East,94,2.0,5.8,35,0.00,,,-99.99,FreeWX 2.04,2013-07-02 12:44:00,
2013-07-02 08:49:00,63.5,35.4,30.03,ESE,102,2.0,5.4,35,0.00,,,-99.99,FreeWX 2.04,2013-07-02 12:49:00,
2013-07-02 08:54:00,63.7,34.7,30.03,ESE,108,2.0,4.5,34,0.00,,,-99.99,FreeWX 2.04,2013-07-02 12:54:00,
2013-07-02 08:59:00,64.0,35.1,30.03,North,-999,0.0,5.4,34,0.00,,,-99.99,FreeWX 2.04,2013-07-02 12:59:00,
2013-07-02 09:04:00,64.4,35.4,30.03,SE,126,1.0,6.3,34,0.00,,,-99.99,FreeWX 2.04,2013-07-02 13:04:00,
2013-07-02 09:09:00,64.4,35.4,30.03,SE,133,1.0,3.6,34,0.00,,,-99.99,FreeWX 2.04,2013-07-02 13:09:00,
2013-07-02 09:14:00,64.8,36.5,30.03,North,-999,0.0,0.0,35,0.00,,,-99.99,FreeWX 2.04,2013-07-02 13:14:00,
2013-07-02 09:19:00,65.1,36.1,30.03,North,-999,0.0,5.4,34,0.00,,,-99.99,FreeWX 2.04,2013-07-02 13:19:00,
2013-07-02 09:24:00,65.1,36.1,30.06,ESE,115,1.0,5.8,34,0.00,,,-99.99,FreeWX 2.04,2013-07-02 13:24:00,
2013-07-02 09:29:00,65.5,36.3,30.06,SSE,152,1.0,4.5,34,0.00,,,-99.99,FreeWX 2.04,2013-07-02 13:29:00,
2013-07-02 09:34:00,65.7,35.8,30.06,SSE,159,1.0,5.8,33,0.00,,,-99.99,FreeWX 2.04,2013-07-02 13:34:00,
2013-07-02 09:39:00,65.3,35.4,30.03,SE,127,1.0,6.9,33,0.00,,,-99.99,FreeWX 2.04,2013-07-02 13:39:00,
2013-07-02 09:44:00,65.1,36.1,30.03,ESE,103,1.0,5.8,34,0.00,,,-99.99,FreeWX 2.04,2013-07-02 13:44:00,
2013-07-02 09:49:00,65.3,36.1,30.03,North,-999,0.0,0.0,34,0.00,,,-99.99,FreeWX 2.04,2013-07-02 13:49:00,
2013-07-02 09:54:00,65.7,36.5,30.06,North,-999,0.0,6.3,34,0.00,,,-99.99,FreeWX 2.04,2013-07-02 13:54:00,
2013-07-02 09:59:00,66.6,37.4,30.06,North,-999,0.0,3.1,34,0.00,,,-99.99,FreeWX 2.04,2013-07-02 13:59:00,
2013-07-02 10:04:00,67.3,36.3,30.06,North,-999,0.0,7.4,32,0.00,,,-99.99,FreeWX 2.04,2013-07-02 14:04:00,
2013-07-02 10:09:00,67.3,35.6,30.06,East,89,1.0,4.9,31,0.00,,,-99.99,FreeWX 2.04,2013-07-02 14:09:00,
2013-07-02 10:14:00,67.1,35.4,30.06,SE,129,1.0,6.3,31,0.00,,,-99.99,FreeWX 2.04,2013-07-02 14:14:00,
2013-07-02 10:19:00,66.9,35.2,30.06,ESE,122,2.0,5.4,31,0.00,,,-99.99,FreeWX 2.04,2013-07-02 14:19:00,
2013-07-02 10:24:00,67.1,36.3,30.06,East,89,1.0,3.6,32,0.00,,,-99.99,FreeWX 2.04,2013-07-02 14:24:00,
2013-07-02 10:29:00,66.9,36.1,30.06,North,-999,0.0,5.4,32,0.00,,,-99.99,FreeWX 2.04,2013-07-02 14:29:00,
2013-07-02 10:34:00,66.4,34.9,30.06,ESE,114,2.0,6.9,31,0.00,,,-99.99,FreeWX 2.04,2013-07-02 14:34:00,
2013-07-02 10:39:00,66.2,36.3,30.06,ESE,115,2.0,4.9,33,0.00,,,-99.99,FreeWX 2.04,2013-07-02 14:39:00,
2013-07-02 10:44:00,66.0,36.1,30.06,ESE,118,2.0,5.8,33,0.00,,,-99.99,FreeWX 2.04,2013-07-02 14:44:00,
2013-07-02 10:49:00,66.6,36.5,30.06,ESE,117,2.0,4.0,33,0.00,,,-99.99,FreeWX 2.04,2013-07-02 14:49:00,
2013-07-02 10:54:00,67.3,36.3,30.06,SE,130,1.0,4.5,32,0.00,,,-99.99,FreeWX 2.04,2013-07-02 14:54:00,
2013-07-02 10:59:00,67.6,36.7,30.06,North,-999,0.0,3.6,32,0.00,,,-99.99,FreeWX 2.04,2013-07-02 14:59:00,
2013-07-02 11:04:00,68.2,35.6,30.06,East,101,1.0,4.5,30,0.00,,,-99.99,FreeWX 2.04,2013-07-02 15:04:00,
2013-07-02 11:09:00,68.5,34.2,30.06,ESE,104,1.0,8.3,28,0.00,,,-99.99,FreeWX 2.04,2013-07-02 15:09:00,
2013-07-02 11:14:00,68.5,34.2,30.06,East,100,2.0,6.3,28,0.00,,,-99.99,FreeWX 2.04,2013-07-02 15:14:00,
2013-07-02 11:19:00,68.7,33.4,30.06,ESE,106,2.0,7.4,27,0.00,,,-99.99,FreeWX 2.04,2013-07-02 15:19:00,
2013-07-02 11:24:00,68.9,33.6,30.06,SE,136,2.0,5.4,27,0.00,,,-99.99,FreeWX 2.04,2013-07-02 15:24:00,
2013-07-02 11:29:00,68.9,32.5,30.06,ESE,123,1.0,5.4,26,0.00,,,-99.99,FreeWX 2.04,2013-07-02 15:29:00,
2013-07-02 11:34:00,68.7,32.4,30.06,East,90,1.0,7.8,26,0.00,,,-99.99,FreeWX 2.04,2013-07-02 15:34:00,
2013-07-02 11:39:00,69.3,32.9,30.03,East,86,1.0,5.4,26,0.00,,,-99.99,FreeWX 2.04,2013-07-02 15:39:00,
2013-07-02 11:44:00,69.6,33.3,30.03,ESE,104,1.0,5.8,26,0.00,,,-99.99,FreeWX 2.04,2013-07-02 15:44:00,
2013-07-02 11:49:00,69.4,32.0,30.03,ESE,111,1.0,6.3,25,0.00,,,-99.99,FreeWX 2.04,2013-07-02 15:49:00,
2013-07-02 11:54:00,68.7,32.4,30.03,East,99,3.0,6.7,26,0.00,,,-99.99,FreeWX 2.04,2013-07-02 15:54:00,
2013-07-02 11:59:00,68.9,32.5,30.03,East,79,3.0,5.4,26,0.00,,,-99.99,FreeWX 2.04,2013-07-02 15:59:00,
2013-07-02 12:04:00,69.4,33.1,30.03,North,354,1.0,4.0,26,0.00,,,-99.99,FreeWX 2.04,2013-07-02 16:04:00,
2013-07-02 12:09:00,69.3,32.0,30.03,NNE,33,1.0,7.8,25,0.00,,,-99.99,FreeWX 2.04,2013-07-02 16:09:00,
2013-07-02 12:14:00,69.1,33.6,30.03,East,89,2.0,8.7,27,0.00,,,-99.99,FreeWX 2.04,2013-07-02 16:14:00,
2013-07-02 12:19:00,69.3,32.9,30.03,East,91,2.0,6.3,26,0.00,,,-99.99,FreeWX 2.04,2013-07-02 16:19:00,
2013-07-02 12:24:00,69.4,32.0,30.03,ESE,114,1.0,5.8,25,0.00,,,-99.99,FreeWX 2.04,2013-07-02 16:24:00,
2013-07-02 12:29:00,69.4,33.1,30.03,ESE,123,2.0,5.8,26,0.00,,,-99.99,FreeWX 2.04,2013-07-02 16:29:00,
2013-07-02 12:34:00,70.9,34.3,30.03,SE,136,1.0,6.7,26,0.00,,,-99.99,FreeWX 2.04,2013-07-02 16:34:00,
2013-07-02 12:39:00,71.4,31.6,30.03,SE,132,2.0,9.6,23,0.00,,,-99.99,FreeWX 2.04,2013-07-02 16:39:00,
2013-07-02 12:44:00,72.5,32.5,30.03,East,94,4.0,8.7,23,0.00,,,-99.99,FreeWX 2.04,2013-07-02 16:44:00,
2013-07-02 12:49:00,73.6,33.4,30.03,East,93,3.0,7.8,23,0.00,,,-99.99,FreeWX 2.04,2013-07-02 16:49:00,
2013-07-02 12:54:00,72.7,31.6,30.03,ESE,104,2.0,5.8,22,0.00,,,-99.99,FreeWX 2.04,2013-07-02 16:54:00,
2013-07-02 12:59:00,71.6,31.8,30.03,ESE,103,2.0,7.4,23,0.00,,,-99.99,FreeWX 2.04,2013-07-02 16:59:00,
2013-07-02 13:04:00,71.1,31.5,30.03,East,93,3.0,6.7,23,0.00,,,-99.99,FreeWX 2.04,2013-07-02 17:04:00,
2013-07-02 13:09:00,70.9,32.4,30.03,East,88,3.0,7.8,24,0.00,,,-99.99,FreeWX 2.04,2013-07-02 17:09:00,
2013-07-02 13:14:00,71.4,32.7,30.03,East,85,3.0,8.7,24,0.00,,,-99.99,FreeWX 2.04,2013-07-02 17:14:00,
2013-07-02 13:19:00,72.1,33.3,30.03,East,88,2.0,6.7,24,0.00,,,-99.99,FreeWX 2.04,2013-07-02 17:19:00,
2013-07-02 13:24:00,73.6,33.4,30.03,East,93,2.0,5.4,23,0.00,,,-99.99,FreeWX 2.04,2013-07-02 17:24:00,
2013-07-02 13:29:00,73.9,32.7,30.03,ESE,103,2.0,9.6,22,0.00,,,-99.99,FreeWX 2.04,2013-07-02 17:29:00,
2013-07-02 13:34:00,73.6,32.4,30.03,ESE,103,3.0,7.8,22,0.00,,,-99.99,FreeWX 2.04,2013-07-02 17:34:00,
2013-07-02 13:39:00,73.4,32.2,30.03,ESE,103,3.0,6.9,22,0.00,,,-99.99,FreeWX 2.04,2013-07-02 17:39:00,
2013-07-02 13:44:00,73.2,33.3,30.03,East,86,2.0,4.5,23,0.00,,,-99.99,FreeWX 2.04,2013-07-02 17:44:00,
2013-07-02 13:49:00,72.5,32.5,30.03,East,99,2.0,6.9,23,0.00,,,-99.99,FreeWX 2.04,2013-07-02 17:49:00,
2013-07-02 13:54:00,73.2,33.3,30.03,ESE,120,2.0,6.7,23,0.00,,,-99.99,FreeWX 2.04,2013-07-02 17:54:00,
2013-07-02 13:59:00,73.8,32.5,30.03,ESE,103,2.0,7.4,22,0.00,,,-99.99,FreeWX 2.04,2013-07-02 17:59:00,
2013-07-02 14:04:00,74.8,33.4,30.03,East,98,3.0,6.7,22,0.00,,,-99.99,FreeWX 2.04,2013-07-02 18:04:00,
2013-07-02 14:09:00,75.0,32.4,30.03,East,99,3.0,8.7,21,0.00,,,-99.99,FreeWX 2.04,2013-07-02 18:09:00,
2013-07-02 14:14:00,74.5,32.0,30.03,East,100,2.0,6.7,21,0.00,,,-99.99,FreeWX 2.04,2013-07-02 18:14:00,
2013-07-02 14:19:00,73.0,30.7,30.03,NE,53,1.0,5.8,21,0.00,,,-99.99,FreeWX 2.04,2013-07-02 18:19:00,
2013-07-02 14:24:00,72.3,32.4,30.03,NE,51,2.0,6.9,23,0.00,,,-99.99,FreeWX 2.04,2013-07-02 18:24:00,
2013-07-02 14:29:00,72.1,33.3,30.03,ESE,107,3.0,9.2,24,0.00,,,-99.99,FreeWX 2.04,2013-07-02 18:29:00,
2013-07-02 14:34:00,72.5,32.5,30.03,ESE,103,3.0,6.7,23,0.00,,,-99.99,FreeWX 2.04,2013-07-02 18:34:00,
2013-07-02 14:39:00,73.0,33.1,30.03,East,88,3.0,6.9,23,0.00,,,-99.99,FreeWX 2.04,2013-07-02 18:39:00,
2013-07-02 14:44:00,73.6,32.4,30.03,ESE,104,2.0,5.8,22,0.00,,,-99.99,FreeWX 2.04,2013-07-02 18:44:00,
2013-07-02 14:49:00,73.4,32.2,30.03,SE,125,2.0,7.8,22,0.00,,,-99.99,FreeWX 2.04,2013-07-02 18:49:00,
2013-07-02 14:54:00,72.5,32.5,30.03,ESE,114,3.0,6.9,23,0.00,,,-99.99,FreeWX 2.04,2013-07-02 18:54:00,
2013-07-02 14:59:00,73.4,33.3,30.03,ENE,65,1.0,4.9,23,0.00,,,-99.99,FreeWX 2.04,2013-07-02 18:59:00,
2013-07-02 15:04:00,74.8,33.4,30.03,NE,34,1.0,6.9,22,0.00,,,-99.99,FreeWX 2.04,2013-07-02 19:04:00,
2013-07-02 15:09:00,74.5,32.0,30.03,East,87,2.0,7.8,21,0.00,,,-99.99,FreeWX 2.04,2013-07-02 19:09:00,
2013-07-02 15:14:00,75.2,32.5,30.03,ESE,107,3.0,7.8,21,0.00,,,-99.99,FreeWX 2.04,2013-07-02 19:14:00,
2013-07-02 15:19:00,75.4,32.7,30.03,ESE,110,2.0,5.4,21,0.00,,,-99.99,FreeWX 2.04,2013-07-02 19:19:00,
2013-07-02 15:24:00,75.0,32.4,30.03,ESE,107,2.0,7.8,21,0.00,,,-99.99,FreeWX 2.04,2013-07-02 19:24:00,
2013-07-02 15:29:00,75.2,32.5,30.03,ESE,116,2.0,6.9,21,0.00,,,-99.99,FreeWX 2.04,2013-07-02 19:29:00,
2013-07-02 15:34:00,74.3,31.8,30.03,ESE,106,3.0,8.3,21,0.00,,,-99.99,FreeWX 2.04,2013-07-02 19:34:00,
2013-07-02 15:44:00,74.1,31.6,30.03,ESE,104,3.0,9.6,21,0.00,,,-99.99,FreeWX 2.04,2013-07-02 19:44:00,
2013-07-02 15:49:00,74.3,32.9,30.03,ESE,110,2.0,7.4,22,0.00,,,-99.99,FreeWX 2.04,2013-07-02 19:49:00,
2013-07-02 15:54:00,75.0,32.4,30.03,ESE,111,2.0,5.4,21,0.00,,,-99.99,FreeWX 2.04,2013-07-02 19:54:00,
2013-07-02 15:59:00,74.8,32.4,30.03,ESE,103,2.0,6.9,21,0.00,,,-99.99,FreeWX 2.04,2013-07-02 19:59:00,
2013-07-02 16:04:00,74.8,32.4,30.03,ESE,102,2.0,7.8,21,0.00,,,-99.99,FreeWX 2.04,2013-07-02 20:04:00,
2013-07-02 16:09:00,74.7,32.2,30.03,East,97,2.0,6.9,21,0.00,,,-99.99,FreeWX 2.04,2013-07-02 20:09:00,
2013-07-02 16:14:00,74.1,31.6,30.03,East,101,3.0,7.4,21,0.00,,,-99.99,FreeWX 2.04,2013-07-02 20:14:00,
2013-07-02 16:19:00,74.5,32.0,30.03,ESE,104,3.0,7.8,21,0.00,,,-99.99,FreeWX 2.04,2013-07-02 20:19:00,
2013-07-02 16:24:00,73.8,32.5,30.03,East,87,2.0,6.7,22,0.00,,,-99.99,FreeWX 2.04,2013-07-02 20:24:00,
2013-07-02 16:29:00,73.2,30.9,30.03,East,91,3.0,8.7,21,0.00,,,-99.99,FreeWX 2.04,2013-07-02 20:29:00,
2013-07-02 16:34:00,72.7,31.6,30.03,East,93,3.0,6.9,22,0.00,,,-99.99,FreeWX 2.04,2013-07-02 20:34:00,
2013-07-02 16:39:00,73.2,32.0,30.03,East,95,3.0,7.8,22,0.00,,,-99.99,FreeWX 2.04,2013-07-02 20:39:00,
2013-07-02 16:44:00,74.3,32.9,30.03,East,99,2.0,6.7,22,0.00,,,-99.99,FreeWX 2.04,2013-07-02 20:44:00,
2013-07-02 16:49:00,74.1,31.6,30.03,ESE,109,2.0,7.4,21,0.00,,,-99.99,FreeWX 2.04,2013-07-02 20:49:00,
2013-07-02 16:54:00,74.1,31.6,30.00,SE,130,2.0,8.3,21,0.00,,,-99.99,FreeWX 2.04,2013-07-02 20:54:00,
2013-07-02 16:59:00,73.2,30.9,30.00,ESE,115,3.0,7.8,21,0.00,,,-99.99,FreeWX 2.04,2013-07-02 20:59:00,
2013-07-02 17:04:00,73.4,31.1,30.00,ESE,109,3.0,6.7,21,0.00,,,-99.99,FreeWX 2.04,2013-07-02 21:04:00,
2013-07-02 17:09:00,73.4,32.2,30.00,East,93,2.0,6.3,22,0.00,,,-99.99,FreeWX 2.04,2013-07-02 21:09:00,
2013-07-02 17:14:00,73.6,31.3,30.00,East,89,2.0,8.3,21,0.00,,,-99.99,FreeWX 2.04,2013-07-02 21:14:00,
2013-07-02 17:19:00,73.6,31.3,30.00,East,95,2.0,6.7,21,0.00,,,-99.99,FreeWX 2.04,2013-07-02 21:19:00,
2013-07-02 17:24:00,72.5,31.5,30.00,East,96,2.0,6.7,22,0.00,,,-99.99,FreeWX 2.04,2013-07-02 21:24:00,
2013-07-02 17:29:00,71.1,31.5,30.00,ESE,110,2.0,6.7,23,0.00,,,-99.99,FreeWX 2.04,2013-07-02 21:29:00,
2013-07-02 17:34:00,70.5,32.0,30.00,ESE,112,2.0,6.3,24,0.00,,,-99.99,FreeWX 2.04,2013-07-02 21:34:00,
2013-07-02 17:39:00,69.4,31.1,30.00,ESE,108,2.0,6.9,24,0.00,,,-99.99,FreeWX 2.04,2013-07-02 21:39:00,
2013-07-02 17:44:00,68.9,31.6,30.00,ESE,111,1.0,4.5,25,0.00,,,-99.99,FreeWX 2.04,2013-07-02 21:44:00,
2013-07-02 17:49:00,68.4,31.1,30.00,North,-999,0.0,4.0,25,0.00,,,-99.99,FreeWX 2.04,2013-07-02 21:49:00,
2013-07-02 17:54:00,68.0,31.8,30.00,ESE,111,1.0,6.3,26,0.00,,,-99.99,FreeWX 2.04,2013-07-02 21:54:00,
2013-07-02 18:04:00,68.0,31.8,30.00,SE,132,1.0,6.9,26,0.00,,,-99.99,FreeWX 2.04,2013-07-02 22:04:00,
2013-07-02 18:09:00,67.8,30.7,30.00,ESE,107,2.0,6.3,25,0.00,,,-99.99,FreeWX 2.04,2013-07-02 22:09:00,
2013-07-02 18:14:00,67.6,31.5,30.00,East,88,1.0,5.8,26,0.00,,,-99.99,FreeWX 2.04,2013-07-02 22:14:00,
2013-07-02 18:19:00,67.8,31.6,30.00,East,80,1.0,4.9,26,0.00,,,-99.99,FreeWX 2.04,2013-07-02 22:19:00,
2013-07-02 18:24:00,68.5,32.4,30.00,North,-999,0.0,4.0,26,0.00,,,-99.99,FreeWX 2.04,2013-07-02 22:24:00,
2013-07-02 18:29:00,68.2,30.0,30.00,ESE,118,1.0,5.4,24,0.00,,,-99.99,FreeWX 2.04,2013-07-02 22:29:00,
2013-07-02 18:34:00,67.6,29.5,30.00,East,99,1.0,4.9,24,0.00,,,-99.99,FreeWX 2.04,2013-07-02 22:34:00,
2013-07-02 18:39:00,67.3,30.2,30.00,North,-999,0.0,3.6,25,0.00,,,-99.99,FreeWX 2.04,2013-07-02 22:39:00,
2013-07-02 18:44:00,66.9,30.0,30.00,North,-999,0.0,5.8,25,0.00,,,-99.99,FreeWX 2.04,2013-07-02 22:44:00,
2013-07-02 18:49:00,66.6,30.6,30.00,ESE,108,1.0,5.8,26,0.00,,,-99.99,FreeWX 2.04,2013-07-02 22:49:00,
2013-07-02 18:54:00,66.9,31.8,30.00,North,-999,0.0,4.5,27,0.00,,,-99.99,FreeWX 2.04,2013-07-02 22:54:00,
2013-07-02 18:59:00,66.7,30.7,30.00,ESE,118,1.0,6.3,26,0.00,,,-99.99,FreeWX 2.04,2013-07-02 22:59:00,
2013-07-02 19:04:00,66.6,30.6,30.00,East,95,2.0,6.3,26,0.00,,,-99.99,FreeWX 2.04,2013-07-02 23:04:00,
2013-07-02 19:09:00,66.6,31.5,30.00,ESE,104,1.0,4.9,27,0.00,,,-99.99,FreeWX 2.04,2013-07-02 23:09:00,
2013-07-02 19:14:00,66.7,31.6,30.00,North,-999,0.0,6.7,27,0.00,,,-99.99,FreeWX 2.04,2013-07-02 23:14:00,
2013-07-02 19:19:00,66.7,31.6,30.00,North,-999,0.0,3.6,27,0.00,,,-99.99,FreeWX 2.04,2013-07-02 23:19:00,
2013-07-02 19:24:00,67.3,34.0,30.03,North,-999,0.0,4.0,29,0.00,,,-99.99,FreeWX 2.04,2013-07-02 23:24:00,
2013-07-02 19:29:00,67.3,33.1,30.03,North,-999,0.0,4.9,28,0.00,,,-99.99,FreeWX 2.04,2013-07-02 23:29:00,
2013-07-02 19:34:00,66.7,32.5,30.03,North,-999,0.0,5.4,28,0.00,,,-99.99,FreeWX 2.04,2013-07-02 23:34:00,
2013-07-02 19:39:00,66.2,33.1,30.03,North,-999,0.0,4.5,29,0.00,,,-99.99,FreeWX 2.04,2013-07-02 23:39:00,
2013-07-02 19:44:00,65.7,33.4,30.03,North,-999,0.0,4.9,30,0.00,,,-99.99,FreeWX 2.04,2013-07-02 23:44:00,
2013-07-02 19:49:00,65.3,34.7,30.03,North,-999,0.0,4.0,32,0.00,,,-99.99,FreeWX 2.04,2013-07-02 23:49:00,
2013-07-02 19:54:00,65.1,34.5,30.00,North,-999,0.0,4.5,32,0.00,,,-99.99,FreeWX 2.04,2013-07-02 23:54:00,
2013-07-02 19:59:00,64.8,34.2,30.00,North,-999,0.0,3.1,32,0.00,,,-99.99,FreeWX 2.04,2013-07-02 23:59:00,
2013-07-02 20:04:00,64.6,34.0,30.00,North,-999,0.0,4.5,32,0.00,,,-99.99,FreeWX 2.04,2013-07-03 00:04:00,
2013-07-02 20:09:00,64.2,33.8,30.00,North,-999,0.0,0.0,32,0.00,,,-99.99,FreeWX 2.04,2013-07-03 00:09:00,
2013-07-02 20:15:00,64.2,33.8,30.00,North,-999,0.0,5.4,32,0.00,,,-99.99,FreeWX 2.04,2013-07-03 00:15:00,
2013-07-02 20:20:00,64.0,33.6,30.00,North,-999,0.0,0.0,32,0.00,,,-99.99,FreeWX 2.04,2013-07-03 00:20:00,
2013-07-02 20:25:00,63.7,33.3,30.00,North,-999,0.0,0.0,32,0.00,,,-99.99,FreeWX 2.04,2013-07-03 00:25:00,
2013-07-02 20:30:00,63.5,33.1,30.00,North,-999,0.0,0.0,32,0.00,,,-99.99,FreeWX 2.04,2013-07-03 00:30:00,
2013-07-02 20:35:00,63.1,33.6,30.00,North,-999,0.0,0.0,33,0.00,,,-99.99,FreeWX 2.04,2013-07-03 00:35:00,
2013-07-02 20:40:00,62.8,33.3,30.03,North,-999,0.0,0.0,33,0.00,,,-99.99,FreeWX 2.04,2013-07-03 00:40:00,
2013-07-02 20:45:00,62.4,33.6,30.03,North,-999,0.0,0.0,34,0.00,,,-99.99,FreeWX 2.04,2013-07-03 00:45:00,
2013-07-02 20:50:00,62.2,33.4,30.03,North,-999,0.0,0.0,34,0.00,,,-99.99,FreeWX 2.04,2013-07-03 00:50:00,
2013-07-02 20:55:00,61.9,33.3,30.03,North,-999,0.0,0.0,34,0.00,,,-99.99,FreeWX 2.04,2013-07-03 00:55:00,
2013-07-02 21:00:00,61.7,33.8,30.03,North,-999,0.0,0.0,35,0.00,,,-99.99,FreeWX 2.04,2013-07-03 01:00:00,
2013-07-02 21:05:00,61.3,34.2,30.03,North,-999,0.0,0.0,36,0.00,,,-99.99,FreeWX 2.04,2013-07-03 01:05:00,
2013-07-02 21:10:00,61.2,34.7,30.03,North,-999,0.0,0.0,37,0.00,,,-99.99,FreeWX 2.04,2013-07-03 01:10:00,
2013-07-02 21:15:00,61.0,35.2,30.03,North,-999,0.0,0.0,38,0.00,,,-99.99,FreeWX 2.04,2013-07-03 01:15:00,
2013-07-02 21:20:00,60.8,35.1,30.03,North,-999,0.0,0.0,38,0.00,,,-99.99,FreeWX 2.04,2013-07-03 01:20:00,
2013-07-02 21:25:00,60.4,35.4,30.03,North,-999,0.0,0.0,39,0.00,,,-99.99,FreeWX 2.04,2013-07-03 01:25:00,
2013-07-02 21:30:00,60.1,35.1,30.03,North,-999,0.0,0.0,39,0.00,,,-99.99,FreeWX 2.04,2013-07-03 01:30:00,
2013-07-02 21:35:00,59.9,36.1,30.03,North,-999,0.0,0.0,41,0.00,,,-99.99,FreeWX 2.04,2013-07-03 01:35:00,
2013-07-02 21:40:00,59.7,36.5,30.03,North,-999,0.0,0.0,42,0.00,,,-99.99,FreeWX 2.04,2013-07-03 01:40:00,
2013-07-02 21:45:00,59.4,36.9,30.03,North,-999,0.0,0.0,43,0.00,,,-99.99,FreeWX 2.04,2013-07-03 01:45:00,
2013-07-02 21:50:00,59.4,37.4,30.03,North,-999,0.0,0.0,44,0.00,,,-99.99,FreeWX 2.04,2013-07-03 01:50:00,
2013-07-02 21:55:00,59.2,37.9,30.03,North,-999,0.0,0.0,45,0.00,,,-99.99,FreeWX 2.04,2013-07-03 01:55:00,
2013-07-02 22:00:00,58.8,37.6,30.03,North,-999,0.0,0.0,45,0.00,,,-99.99,FreeWX 2.04,2013-07-03 02:00:00,
2013-07-02 22:05:00,58.6,37.9,30.03,North,-999,0.0,0.0,46,0.00,,,-99.99,FreeWX 2.04,2013-07-03 02:05:00,
2013-07-02 22:10:00,58.5,37.8,30.00,North,-999,0.0,0.0,46,0.00,,,-99.99,FreeWX 2.04,2013-07-03 02:10:00,
2013-07-02 22:15:00,58.3,37.6,30.00,North,-999,0.0,0.0,46,0.00,,,-99.99,FreeWX 2.04,2013-07-03 02:15:00,
2013-07-02 22:20:00,58.1,37.4,30.00,North,-999,0.0,0.0,46,0.00,,,-99.99,FreeWX 2.04,2013-07-03 02:20:00,
2013-07-02 22:25:00,58.1,37.9,30.00,North,-999,0.0,0.0,47,0.00,,,-99.99,FreeWX 2.04,2013-07-03 02:25:00,